createdAt,value
2019-02-05T00:01:21.046Z,10.90
2019-02-05T00:03:50.615Z,10.90
2019-02-05T00:06:20.482Z,10.90
2019-02-05T00:08:50.051Z,10.88
2019-02-05T00:11:19.544Z,10.95
2019-02-05T00:13:48.938Z,11.04
2019-02-05T00:16:18.328Z,11.08
2019-02-05T00:18:47.824Z,11.05
2019-02-05T00:21:17.791Z,11.05
2019-02-05T00:23:47.193Z,11.07
2019-02-05T00:26:16.589Z,11.08
2019-02-05T00:28:46.110Z,11.11
2019-02-05T00:31:15.634Z,11.06
2019-02-05T00:33:45.005Z,11.01
2019-02-05T00:36:14.681Z,11.00
2019-02-05T00:38:44.164Z,11.05
2019-02-05T00:41:13.759Z,11.02
2019-02-05T00:43:43.154Z,11.05
2019-02-05T00:46:12.838Z,11.12
2019-02-05T00:48:42.219Z,11.14
2019-02-05T00:51:11.669Z,11.13
2019-02-05T00:53:41.368Z,11.12
2019-02-05T00:56:17.360Z,11.11
2019-02-05T00:58:41.980Z,11.13
2019-02-05T01:01:11.371Z,11.20
2019-02-05T01:03:40.850Z,11.15
2019-02-05T01:06:10.494Z,11.09
2019-02-05T01:08:40.132Z,11.12
2019-02-05T01:11:09.522Z,11.10
2019-02-05T01:13:39.145Z,11.08
2019-02-05T01:16:08.759Z,10.94
2019-02-05T01:18:38.660Z,11.00
2019-02-05T01:21:08.167Z,11.12
2019-02-05T01:23:37.655Z,11.09
2019-02-05T01:26:07.158Z,11.05
2019-02-05T01:28:36.721Z,11.01
2019-02-05T01:31:06.114Z,10.90
2019-02-05T01:33:35.675Z,10.93
2019-02-05T01:36:05.156Z,10.85
2019-02-05T01:38:34.548Z,10.78
2019-02-05T01:41:03.986Z,10.64
2019-02-05T01:43:33.482Z,10.60
2019-02-05T01:46:03.081Z,10.57
2019-02-05T01:48:32.470Z,10.51
2019-02-05T01:51:01.873Z,10.42
2019-02-05T01:53:31.364Z,10.36
2019-02-05T01:56:00.858Z,10.46
2019-02-05T01:58:30.289Z,10.46
2019-02-05T02:00:59.955Z,10.45
2019-02-05T02:03:29.783Z,10.42
2019-02-05T02:05:59.176Z,10.36
2019-02-05T02:08:29.046Z,10.34
2019-02-05T02:10:58.626Z,10.27
2019-02-05T02:13:28.104Z,10.29
2019-02-05T02:15:58.106Z,10.30
2019-02-05T02:18:27.581Z,10.41
2019-02-05T02:20:57.100Z,10.35
2019-02-05T02:23:26.592Z,10.41
2019-02-05T02:25:55.973Z,10.36
2019-02-05T02:28:25.474Z,10.26
2019-02-05T02:30:54.966Z,10.16
2019-02-05T02:33:24.507Z,10.22
2019-02-05T02:35:54.139Z,10.22
2019-02-05T02:38:23.635Z,10.17
2019-02-05T02:40:53.379Z,10.23
2019-02-05T02:43:22.771Z,10.20
2019-02-05T02:45:52.265Z,10.24
2019-02-05T02:48:21.699Z,10.25
2019-02-05T02:50:51.080Z,10.29
2019-02-05T02:53:20.794Z,10.19
2019-02-05T02:55:50.543Z,10.17
2019-02-05T02:58:20.150Z,10.17
2019-02-05T03:00:49.840Z,10.12
2019-02-05T03:03:19.714Z,10.18
2019-02-05T03:05:49.600Z,10.15
2019-02-05T03:08:19.338Z,10.12
2019-02-05T03:10:49.059Z,10.05
2019-02-05T03:13:18.918Z,10.04
2019-02-05T03:15:48.776Z,9.97
2019-02-05T03:18:18.483Z,9.87
2019-02-05T03:20:48.095Z,9.92
2019-02-05T03:23:17.769Z,9.98
2019-02-05T03:25:47.159Z,9.95
2019-02-05T03:28:16.908Z,10.02
2019-02-05T03:30:46.725Z,9.98
2019-02-05T03:33:16.315Z,10.02
2019-02-05T03:35:45.808Z,9.87
2019-02-05T03:38:15.598Z,9.70
2019-02-05T03:41:04.800Z,9.66
2019-02-05T03:43:35.431Z,9.53
2019-02-05T03:46:09.949Z,9.35
2019-02-05T03:48:40.647Z,9.21
2019-02-05T03:51:30.577Z,9.08
2019-02-05T03:54:30.238Z,8.96
2019-02-05T03:57:09.437Z,8.70
2019-02-05T04:00:06.591Z,8.73
2019-02-05T04:02:58.094Z,8.76
2019-02-05T04:06:14.388Z,8.76
2019-02-05T04:09:12.739Z,8.83
2019-02-05T04:12:13.507Z,8.78
2019-02-05T04:14:58.359Z,8.76
2019-02-05T04:18:00.494Z,8.58
2019-02-05T04:21:11.015Z,8.56
2019-02-05T04:24:00.081Z,8.49
2019-02-05T04:26:42.704Z,8.36
2019-02-05T04:29:55.045Z,8.23
2019-02-05T04:33:17.502Z,8.18
2019-02-05T04:36:42.813Z,8.13
2019-02-05T04:39:40.827Z,8.06
2019-02-05T04:42:37.551Z,8.06
2019-02-05T04:45:37.361Z,8.11
2019-02-05T04:48:56.447Z,8.05
2019-02-05T04:51:50.109Z,8.06
2019-02-05T04:55:14.658Z,8.01
2019-02-05T04:58:15.774Z,7.93
2019-02-05T05:01:18.802Z,7.90
2019-02-05T05:04:16.678Z,7.81
2019-02-05T05:07:22.474Z,7.75
2019-02-05T05:09:59.964Z,7.65
2019-02-05T05:12:30.582Z,7.54
2019-02-05T05:15:00.899Z,7.53
2019-02-05T05:17:30.519Z,7.50
2019-02-05T05:20:00.517Z,7.52
2019-02-05T05:22:30.768Z,7.47
2019-02-05T05:25:00.363Z,7.46
2019-02-05T05:27:30.785Z,7.40
2019-02-05T05:30:00.585Z,7.42
2019-02-05T05:32:30.206Z,7.41
2019-02-05T05:35:00.153Z,7.37
2019-02-05T05:37:29.750Z,7.33
2019-02-05T05:39:59.234Z,7.33
2019-02-05T05:42:28.897Z,7.32
2019-02-05T05:44:58.296Z,7.37
2019-02-05T05:47:27.776Z,7.52
2019-02-05T05:49:57.288Z,7.41
2019-02-05T05:52:26.948Z,7.35
2019-02-05T05:54:56.689Z,7.33
2019-02-05T05:57:26.743Z,7.25
2019-02-05T05:59:56.225Z,7.26
2019-02-05T06:02:25.615Z,7.26
2019-02-05T06:04:55.001Z,7.29
2019-02-05T06:07:24.646Z,7.36
2019-02-05T06:09:54.117Z,7.37
2019-02-05T06:12:23.542Z,7.32
2019-02-05T06:14:52.936Z,7.30
2019-02-05T06:17:22.477Z,7.34
2019-02-05T06:19:51.861Z,7.35
2019-02-05T06:22:21.462Z,7.36
2019-02-05T06:24:50.994Z,7.49
2019-02-05T06:27:20.505Z,7.63
2019-02-05T06:29:50.269Z,7.75
2019-02-05T06:32:20.161Z,7.86
2019-02-05T06:34:49.704Z,7.97
2019-02-05T06:37:19.099Z,8.07
2019-02-05T06:39:51.641Z,8.17
2019-02-05T06:42:21.496Z,8.32
2019-02-05T06:44:51.150Z,8.44
2019-02-05T06:47:20.548Z,8.36
2019-02-05T06:49:50.029Z,8.49
2019-02-05T06:52:19.537Z,8.65
2019-02-05T06:54:49.029Z,8.97
2019-02-05T06:57:18.479Z,9.33
2019-02-05T06:59:48.260Z,9.58
2019-02-05T07:02:17.755Z,9.90
2019-02-05T07:04:47.257Z,10.07
2019-02-05T07:07:16.647Z,10.26
2019-02-05T07:09:46.049Z,10.47
2019-02-05T07:12:15.555Z,10.74
2019-02-05T07:14:45.097Z,11.15
2019-02-05T07:17:14.496Z,11.39
2019-02-05T07:19:43.894Z,11.68
2019-02-05T07:22:13.489Z,11.84
2019-02-05T07:24:42.986Z,11.97
2019-02-05T07:27:12.375Z,12.08
2019-02-05T07:29:41.774Z,12.09
2019-02-05T07:32:11.652Z,12.15
2019-02-05T07:34:41.144Z,12.26
2019-02-05T07:37:10.573Z,12.36
2019-02-05T07:39:40.064Z,12.46
2019-02-05T07:42:09.475Z,12.36
2019-02-05T07:44:40.067Z,12.28
2019-02-05T07:47:09.743Z,12.38
2019-02-05T07:49:39.526Z,12.38
2019-02-05T07:52:09.115Z,12.43
2019-02-05T07:54:38.507Z,12.45
2019-02-05T07:57:08.162Z,12.51
2019-02-05T07:59:37.899Z,12.35
2019-02-05T08:02:07.614Z,12.29
2019-02-05T08:04:37.008Z,12.30
2019-02-05T08:07:07.685Z,12.38
2019-02-05T08:09:37.688Z,12.46
2019-02-05T08:12:07.291Z,12.43
2019-02-05T08:14:36.674Z,12.50
2019-02-05T08:17:06.208Z,12.62
2019-02-05T08:19:35.633Z,12.59
2019-02-05T08:22:05.321Z,12.65
2019-02-05T08:24:35.120Z,12.74
2019-02-05T08:27:04.790Z,12.85
2019-02-05T08:29:34.540Z,12.93
2019-02-05T08:32:04.352Z,13.13
2019-02-05T08:34:33.859Z,13.19
2019-02-05T08:37:03.377Z,13.19
2019-02-05T08:39:33.103Z,13.09
2019-02-05T08:42:02.607Z,13.04
2019-02-05T08:44:32.206Z,13.17
2019-02-05T08:47:01.613Z,13.26
2019-02-05T08:49:31.012Z,13.58
2019-02-05T08:52:00.508Z,13.80
2019-02-05T08:54:29.988Z,14.18
2019-02-05T08:56:59.806Z,14.50
2019-02-05T08:59:29.250Z,15.02
2019-02-05T09:01:58.643Z,15.62
2019-02-05T09:04:28.048Z,16.08
2019-02-05T09:06:57.534Z,16.20
2019-02-05T09:09:27.037Z,16.16
2019-02-05T09:11:56.514Z,16.31
2019-02-05T09:14:27.547Z,16.60
2019-02-05T09:16:57.058Z,16.99
2019-02-05T09:19:26.668Z,17.53
2019-02-05T09:21:56.061Z,18.07
2019-02-05T09:24:25.461Z,17.52
2019-02-05T09:26:54.958Z,17.15
2019-02-05T09:29:33.214Z,17.35
2019-02-05T09:31:55.686Z,17.94
2019-02-05T09:34:25.090Z,18.57
2019-02-05T09:36:54.583Z,18.96
2019-02-05T09:39:24.103Z,19.19
2019-02-05T09:41:53.727Z,19.23
2019-02-05T09:44:23.600Z,19.21
2019-02-05T09:46:52.990Z,19.70
2019-02-05T09:49:22.391Z,19.94
2019-02-05T09:51:52.020Z,19.30
2019-02-05T09:54:21.497Z,19.11
2019-02-05T09:56:50.936Z,19.34
2019-02-05T09:59:20.333Z,19.90
2019-02-05T10:01:50.007Z,19.96
2019-02-05T10:04:19.583Z,19.64
2019-02-05T10:06:50.064Z,20.53
2019-02-05T10:09:19.880Z,20.56
2019-02-05T10:11:49.370Z,21.26
2019-02-05T10:14:18.869Z,21.01
2019-02-05T10:16:48.685Z,21.50
2019-02-05T10:19:18.190Z,21.71
2019-02-05T10:21:47.590Z,21.57
2019-02-05T10:24:17.061Z,22.01
2019-02-05T10:26:46.594Z,22.32
2019-02-05T10:29:16.088Z,22.13
2019-02-05T10:31:45.482Z,22.62
2019-02-05T10:34:15.052Z,22.71
2019-02-05T10:36:44.602Z,23.43
2019-02-05T10:39:14.353Z,22.98
2019-02-05T10:41:43.726Z,21.64
2019-02-05T10:44:13.115Z,21.88
2019-02-05T10:46:42.603Z,21.76
2019-02-05T10:49:12.441Z,22.45
2019-02-05T10:51:43.281Z,23.42
2019-02-05T10:54:12.666Z,23.92
2019-02-05T10:56:42.161Z,23.75
2019-02-05T10:59:11.651Z,23.10
2019-02-05T11:01:41.254Z,23.29
2019-02-05T11:04:10.742Z,22.94
2019-02-05T11:06:40.206Z,23.41
2019-02-05T11:09:11.290Z,23.06
2019-02-05T11:11:40.790Z,22.65
2019-02-05T11:14:10.275Z,22.87
2019-02-05T11:16:39.701Z,23.76
2019-02-05T11:19:09.210Z,24.38
2019-02-05T11:21:39.074Z,25.03
2019-02-05T11:24:08.692Z,25.84
2019-02-05T11:26:38.101Z,26.81
2019-02-05T11:29:07.508Z,27.71
2019-02-05T11:31:37.000Z,27.84
2019-02-05T11:34:06.762Z,27.84
2019-02-05T11:36:36.151Z,28.79
2019-02-05T11:39:13.780Z,28.22
2019-02-05T11:41:43.285Z,28.75
2019-02-05T11:44:12.677Z,29.24
2019-02-05T11:46:42.167Z,27.72
2019-02-05T11:49:11.668Z,27.76
2019-02-05T11:51:42.147Z,28.26
2019-02-05T11:54:11.542Z,28.96
2019-02-05T11:56:41.053Z,29.10
2019-02-05T11:59:10.527Z,29.49
2019-02-05T12:01:40.623Z,29.63
2019-02-05T12:04:10.012Z,31.10
2019-02-05T12:06:39.530Z,30.64
2019-02-05T12:09:19.186Z,29.99
2019-02-05T12:11:48.644Z,28.33
2019-02-05T12:14:18.046Z,27.11
2019-02-05T12:16:47.603Z,27.90
2019-02-05T12:19:17.107Z,27.24
2019-02-05T12:21:46.706Z,27.76
2019-02-05T12:24:16.125Z,27.34
2019-02-05T12:26:45.721Z,27.12
2019-02-05T12:29:15.230Z,27.33
2019-02-05T12:31:44.620Z,27.69
2019-02-05T12:34:14.181Z,27.62
2019-02-05T12:36:43.677Z,28.53
2019-02-05T12:39:18.209Z,29.53
2019-02-05T12:41:48.010Z,28.94
2019-02-05T12:44:17.504Z,27.53
2019-02-05T12:46:47.006Z,27.85
2019-02-05T12:49:16.507Z,27.40
2019-02-05T12:51:45.964Z,27.29
2019-02-05T12:54:15.749Z,28.02
2019-02-05T12:56:45.243Z,27.75
2019-02-05T12:59:14.648Z,27.65
2019-02-05T13:01:44.128Z,28.22
2019-02-05T13:04:13.680Z,27.03
2019-02-05T13:06:43.067Z,27.26
2019-02-05T13:09:12.647Z,27.60
2019-02-05T13:11:42.142Z,27.49
2019-02-05T13:14:11.627Z,27.87
2019-02-05T13:16:41.036Z,27.19
2019-02-05T13:19:10.431Z,25.33
2019-02-05T13:21:39.935Z,23.85
2019-02-05T13:24:09.515Z,22.76
2019-02-05T13:26:38.921Z,21.16
2019-02-05T13:29:08.321Z,20.88
2019-02-05T13:31:37.871Z,20.95
2019-02-05T13:34:07.875Z,20.13
2019-02-05T13:36:37.275Z,19.53
2019-02-05T13:39:11.968Z,19.43
2019-02-05T13:41:41.358Z,19.10
2019-02-05T13:44:10.771Z,18.64
2019-02-05T13:46:40.266Z,18.41
2019-02-05T13:49:09.863Z,17.95
2019-02-05T13:51:39.641Z,17.62
2019-02-05T13:54:09.076Z,17.67
2019-02-05T13:56:38.762Z,17.68
2019-02-05T13:59:08.252Z,17.37
2019-02-05T14:01:37.999Z,16.85
2019-02-05T14:04:07.527Z,16.65
2019-02-05T14:06:37.295Z,16.77
2019-02-05T14:09:12.736Z,16.50
2019-02-05T14:11:42.472Z,16.37
2019-02-05T14:14:11.876Z,16.28
2019-02-05T14:16:41.714Z,16.16
2019-02-05T14:19:11.099Z,15.93
2019-02-05T14:21:40.861Z,15.87
2019-02-05T14:24:10.742Z,15.49
2019-02-05T14:26:40.255Z,15.68
2019-02-05T14:29:10.343Z,15.63
2019-02-05T14:31:40.011Z,15.47
2019-02-05T14:34:09.732Z,15.35
2019-02-05T14:36:39.253Z,15.30
2019-02-05T14:39:10.513Z,15.08
2019-02-05T14:41:39.998Z,14.94
2019-02-05T14:44:09.785Z,14.84
2019-02-05T14:46:39.398Z,14.87
2019-02-05T14:49:09.276Z,14.87
2019-02-05T14:51:39.011Z,14.81
2019-02-05T14:54:08.610Z,14.64
2019-02-05T14:56:38.269Z,14.43
2019-02-05T14:59:08.155Z,14.21
2019-02-05T15:01:43.169Z,14.08
2019-02-05T15:04:08.703Z,14.01
2019-02-05T15:06:38.459Z,14.00
2019-02-05T15:09:09.177Z,13.96
2019-02-05T15:11:38.809Z,13.89
2019-02-05T15:14:08.676Z,13.95
2019-02-05T15:16:38.447Z,13.94
2019-02-05T15:19:08.216Z,13.97
2019-02-05T15:21:37.897Z,13.86
2019-02-05T15:24:07.307Z,13.89
2019-02-05T15:26:36.955Z,13.70
2019-02-05T15:29:06.655Z,13.80
2019-02-05T15:31:36.637Z,13.80
2019-02-05T15:34:17.984Z,13.66
2019-02-05T15:36:49.552Z,13.64
2019-02-05T15:39:19.117Z,13.63
2019-02-05T15:41:48.957Z,13.58
2019-02-05T15:44:18.453Z,13.42
2019-02-05T15:46:48.120Z,13.30
2019-02-05T15:49:17.505Z,13.21
2019-02-05T15:51:47.088Z,13.07
2019-02-05T15:54:16.592Z,13.09
2019-02-05T15:56:48.500Z,12.95
2019-02-05T15:59:18.097Z,12.83
2019-02-05T16:01:47.717Z,12.76
2019-02-05T16:04:18.262Z,12.58
2019-02-05T16:06:47.702Z,12.46
2019-02-05T16:09:19.400Z,12.32
2019-02-05T16:11:52.212Z,12.24
2019-02-05T16:14:21.829Z,12.14
2019-02-05T16:16:51.269Z,12.12
2019-02-05T16:19:20.955Z,11.98
2019-02-05T16:21:50.590Z,12.05
2019-02-05T16:24:20.001Z,11.92
2019-02-05T16:26:51.205Z,12.02
2019-02-05T16:29:20.706Z,11.98
2019-02-05T16:31:50.357Z,11.86
2019-02-05T16:34:19.908Z,11.91
2019-02-05T16:36:49.683Z,12.00
2019-02-05T16:39:21.984Z,11.98
2019-02-05T16:41:51.780Z,12.09
2019-02-05T16:44:21.181Z,12.26
2019-02-05T16:46:51.074Z,12.32
2019-02-05T16:49:22.503Z,12.23
2019-02-05T16:51:51.935Z,12.27
2019-02-05T16:54:21.643Z,12.28
2019-02-05T16:56:51.506Z,12.27
2019-02-05T16:59:21.568Z,12.47
2019-02-05T17:01:51.551Z,12.46
2019-02-05T17:04:21.101Z,12.35
2019-02-05T17:06:50.527Z,12.36
2019-02-05T17:09:20.503Z,12.32
2019-02-05T17:11:50.266Z,12.34
2019-02-05T17:14:20.070Z,12.35
2019-02-05T17:16:49.525Z,12.30
2019-02-05T17:19:18.928Z,12.15
2019-02-05T17:21:48.425Z,12.17
2019-02-05T17:24:18.510Z,12.16
2019-02-05T17:26:48.255Z,11.98
2019-02-05T17:29:17.639Z,11.99
2019-02-05T17:31:47.526Z,11.98
2019-02-05T17:34:17.384Z,12.03
2019-02-05T17:36:46.805Z,12.03
2019-02-05T17:39:16.479Z,11.86
2019-02-05T17:41:46.225Z,11.85
2019-02-05T17:44:16.035Z,11.90
2019-02-05T17:46:45.617Z,11.83
2019-02-05T17:49:15.328Z,11.77
2019-02-05T17:51:45.302Z,11.65
2019-02-05T17:54:15.295Z,11.56
2019-02-05T17:56:45.149Z,11.56
2019-02-05T17:59:14.972Z,11.44
2019-02-05T18:01:44.620Z,11.51
2019-02-05T18:04:14.404Z,11.42
2019-02-05T18:06:44.926Z,11.39
2019-02-05T18:09:14.703Z,11.33
2019-02-05T18:11:44.462Z,11.27
2019-02-05T18:14:14.595Z,11.21
2019-02-05T18:16:46.776Z,11.16
2019-02-05T18:19:16.565Z,11.11
2019-02-05T18:21:46.852Z,11.08
2019-02-05T18:24:16.753Z,11.03
2019-02-05T18:26:47.945Z,11.05
2019-02-05T18:29:19.817Z,11.05
2019-02-05T18:31:49.403Z,11.00
2019-02-05T18:34:19.274Z,10.96
2019-02-05T18:36:49.136Z,10.92
2019-02-05T18:39:18.833Z,10.90
2019-02-05T18:41:48.664Z,10.85
2019-02-05T18:44:18.234Z,10.90
2019-02-05T18:46:47.979Z,10.90
2019-02-05T18:49:18.005Z,10.80
2019-02-05T18:51:47.764Z,10.77
2019-02-05T18:54:17.476Z,10.58
2019-02-05T18:56:47.022Z,10.59
2019-02-05T18:59:16.566Z,10.63
2019-02-05T19:01:46.375Z,10.70
2019-02-05T19:04:16.543Z,10.59
2019-02-05T19:06:46.178Z,10.58
2019-02-05T19:09:16.080Z,10.48
2019-02-05T19:11:46.046Z,10.41
2019-02-05T19:14:16.035Z,10.49
2019-02-05T19:16:45.779Z,10.63
2019-02-05T19:19:15.950Z,10.70
2019-02-05T19:21:45.917Z,10.62
2019-02-05T19:24:32.918Z,10.59
2019-02-05T19:27:02.342Z,10.61
2019-02-05T19:29:32.854Z,10.55
2019-02-05T19:32:02.684Z,10.51
2019-02-05T19:34:32.323Z,10.49
2019-02-05T19:37:02.411Z,10.38
2019-02-05T19:39:32.219Z,10.46
2019-02-05T19:42:01.826Z,10.49
2019-02-05T19:44:31.508Z,10.52
2019-02-05T19:47:04.247Z,10.51
2019-02-05T19:49:36.982Z,10.43
2019-02-05T19:52:06.667Z,10.59
2019-02-05T19:54:36.435Z,10.59
2019-02-05T19:57:06.268Z,10.61
2019-02-05T19:59:36.663Z,10.67
2019-02-05T20:02:06.862Z,10.59
2019-02-05T20:04:38.906Z,10.67
2019-02-05T20:07:08.556Z,10.66
2019-02-05T20:09:38.298Z,10.64
2019-02-05T20:12:09.393Z,10.58
2019-02-05T20:14:39.091Z,10.61
2019-02-05T20:17:09.096Z,10.63
2019-02-05T20:19:38.701Z,10.57
2019-02-05T20:22:08.185Z,10.50
2019-02-05T20:24:37.710Z,10.51
2019-02-05T20:27:07.938Z,10.47
2019-02-05T20:29:37.537Z,10.48
2019-02-05T20:32:07.626Z,10.46
2019-02-05T20:34:37.746Z,10.51
2019-02-05T20:37:07.497Z,10.53
2019-02-05T20:39:37.242Z,10.58
2019-02-05T20:42:06.913Z,10.58
2019-02-05T20:44:36.634Z,10.60
2019-02-05T20:47:06.745Z,10.61
2019-02-05T20:49:36.127Z,10.56
2019-02-05T20:52:05.992Z,10.64
2019-02-05T20:54:35.604Z,10.55
2019-02-05T20:57:05.270Z,10.68
2019-02-05T20:59:34.913Z,10.71
2019-02-05T21:02:04.736Z,10.69
2019-02-05T21:04:35.524Z,10.70
2019-02-05T21:07:05.643Z,10.64
2019-02-05T21:09:35.134Z,10.69
2019-02-05T21:12:04.852Z,10.67
2019-02-05T21:14:34.465Z,10.63
2019-02-05T21:17:04.299Z,10.51
2019-02-05T21:19:34.133Z,10.55
2019-02-05T21:22:03.791Z,10.52
2019-02-05T21:24:33.226Z,10.56
2019-02-05T21:27:02.836Z,10.45
2019-02-05T21:29:32.572Z,10.46
2019-02-05T21:32:01.961Z,10.55
2019-02-05T21:34:31.900Z,10.65
2019-02-05T21:37:01.560Z,10.43
2019-02-05T21:39:31.138Z,10.53
2019-02-05T21:42:00.987Z,10.54
2019-02-05T21:44:30.725Z,10.61
2019-02-05T21:47:00.313Z,10.65
2019-02-05T21:49:30.079Z,10.59
2019-02-05T21:51:59.807Z,10.54
2019-02-05T21:54:29.287Z,10.55
2019-02-05T21:56:58.897Z,10.46
2019-02-05T21:59:28.295Z,10.48
2019-02-05T22:01:57.796Z,10.38
2019-02-05T22:04:28.214Z,10.42
2019-02-05T22:06:58.151Z,10.49
2019-02-05T22:09:27.631Z,10.38
2019-02-05T22:11:57.308Z,10.35
2019-02-05T22:14:26.804Z,10.41
2019-02-05T22:16:56.203Z,10.43
2019-02-05T22:19:27.048Z,10.51
2019-02-05T22:21:56.716Z,10.22
2019-02-05T22:24:26.407Z,9.92
2019-02-05T22:26:56.244Z,9.74
2019-02-05T22:29:25.745Z,9.59
2019-02-05T22:31:56.927Z,9.53
2019-02-05T22:34:38.600Z,9.62
2019-02-05T22:36:57.891Z,9.57
2019-02-05T22:39:27.754Z,9.56
2019-02-05T22:41:57.444Z,9.66
2019-02-05T22:44:26.850Z,9.54
2019-02-05T22:46:56.987Z,9.34
2019-02-05T22:49:26.770Z,9.15
2019-02-05T22:51:56.714Z,9.05
2019-02-05T22:54:26.417Z,8.94
2019-02-05T22:56:55.907Z,8.91
2019-02-05T22:59:25.938Z,9.01
2019-02-05T23:01:57.979Z,8.91
2019-02-05T23:05:14.071Z,8.86
2019-02-05T23:07:43.996Z,8.93
2019-02-05T23:10:34.823Z,8.90
2019-02-05T23:13:07.791Z,8.87
2019-02-05T23:15:39.322Z,9.09
2019-02-05T23:18:09.294Z,8.95
2019-02-05T23:20:39.001Z,8.84
2019-02-05T23:23:08.385Z,8.70
2019-02-05T23:25:38.069Z,8.71
2019-02-05T23:28:07.769Z,8.74
2019-02-05T23:30:37.508Z,8.89
2019-02-05T23:33:07.162Z,8.97
2019-02-05T23:35:36.789Z,8.92
2019-02-05T23:38:06.742Z,8.78
2019-02-05T23:40:36.336Z,8.57
2019-02-05T23:43:06.409Z,8.57
2019-02-05T23:45:36.317Z,8.52
2019-02-05T23:48:06.377Z,8.70
2019-02-05T23:50:36.081Z,8.83
2019-02-05T23:53:06.586Z,8.78
2019-02-05T23:55:36.425Z,8.90
2019-02-05T23:58:06.583Z,8.77
